sensor_id;sensor_type;location;lat;lon;timestamp;pressure;altitude;pressure_sealevel;temperature;humidity
9460;BME280;4768;42.664;23.240;2022-08-19T00:00:10;173014.31;;;22.67;100.00
9460;BME280;4768;42.664;23.240;2022-08-19T00:02:39;172966.00;;;22.49;100.00
9460;BME280;4768;42.664;23.240;2022-08-19T00:05:08;172978.09;;;22.54;100.00
9460;BME280;4768;42.664;23.240;2022-08-19T00:07:35;172964.69;;;22.49;100.00
9460;BME280;4768;42.664;23.240;2022-08-19T00:10:03;172964.69;;;22.49;100.00
9460;BME280;4768;42.664;23.240;2022-08-19T00:12:30;173011.66;;;22.66;100.00
9460;BME280;4768;42.664;23.240;2022-08-19T00:14:58;173029.09;;;22.73;100.00
9460;BME280;4768;42.664;23.240;2022-08-19T00:17:25;173023.75;;;22.71;100.00
9460;BME280;4768;42.664;23.240;2022-08-19T00:19:52;173002.25;;;22.63;100.00
9460;BME280;4768;42.664;23.240;2022-08-19T00:22:18;172994.19;;;22.60;100.00
9460;BME280;4768;42.664;23.240;2022-08-19T00:24:45;172994.19;;;22.60;100.00
9460;BME280;4768;42.664;23.240;2022-08-19T00:27:12;172982.09;;;22.55;100.00
9460;BME280;4768;42.664;23.240;2022-08-19T00:29:39;172955.28;;;22.45;100.00
9460;BME280;4768;42.664;23.240;2022-08-19T00:32:07;172901.56;;;22.26;100.00
9460;BME280;4768;42.664;23.240;2022-08-19T00:34:34;172927.13;;;22.35;100.00
9460;BME280;4768;42.664;23.240;2022-08-19T00:37:00;172901.56;;;22.26;100.00
9460;BME280;4768;42.664;23.240;2022-08-19T00:39:27;172880.06;;;22.18;100.00
9460;BME280;4768;42.664;23.240;2022-08-19T00:41:55;172881.41;;;22.18;100.00
9460;BME280;4768;42.664;23.240;2022-08-19T00:44:25;172851.88;;;22.07;100.00
9460;BME280;4768;42.664;23.240;2022-08-19T00:46:54;172843.84;;;22.04;100.00
9460;BME280;4768;42.664;23.240;2022-08-19T00:49:26;172854.53;;;22.08;100.00
9460;BME280;4768;42.664;23.240;2022-08-19T00:52:00;172862.59;;;22.11;100.00
9460;BME280;4768;42.664;23.240;2022-08-19T00:54:28;172843.84;;;22.04;100.00
9460;BME280;4768;42.664;23.240;2022-08-19T00:56:57;172794.16;;;21.86;100.00
9460;BME280;4768;42.664;23.240;2022-08-19T00:59:24;172759.31;;;21.73;100.00
9460;BME280;4768;42.664;23.240;2022-08-19T01:01:52;172686.81;;;21.46;100.00
9460;BME280;4768;42.664;23.240;2022-08-19T01:04:19;172688.19;;;21.47;100.00
9460;BME280;4768;42.664;23.240;2022-08-19T01:06:47;172658.59;;;21.36;100.00
9460;BME280;4768;42.664;23.240;2022-08-19T01:09:13;172619.72;;;21.22;100.00
9460;BME280;4768;42.664;23.240;2022-08-19T01:11:42;172606.28;;;21.17;100.00
9460;BME280;4768;42.664;23.240;2022-08-19T01:14:10;172658.59;;;21.36;100.00
9460;BME280;4768;42.664;23.240;2022-08-19T01:16:39;172621.03;;;21.22;100.00
9460;BME280;4768;42.664;23.240;2022-08-19T01:19:12;172584.81;;;21.09;100.00
9460;BME280;4768;42.664;23.240;2022-08-19T01:21:49;172524.47;;;20.87;100.00
9460;BME280;4768;42.664;23.240;2022-08-19T01:24:19;172490.91;;;20.74;100.00
9460;BME280;4768;42.664;23.240;2022-08-19T01:26:47;172490.91;;;20.74;100.00
9460;BME280;4768;42.664;23.240;2022-08-19T01:29:14;172490.91;;;-138.48;100.00
9460;BME280;4768;42.664;23.240;2022-08-19T01:31:40;172591.56;;;21.11;100.00
9460;BME280;4768;42.664;23.240;2022-08-19T01:34:07;172603.63;;;21.16;100.00
9460;BME280;4768;42.664;23.240;2022-08-19T01:36:37;172590.16;;;21.11;100.00
9460;BME280;4768;42.664;23.240;2022-08-19T01:39:07;172435.94;;;-92.93;100.00
9460;BME280;4768;42.664;23.240;2022-08-19T01:41:36;172462.72;;;20.65;100.00
9460;BME280;4768;42.664;23.240;2022-08-19T01:44:04;172622.38;;;21.23;100.00
9460;BME280;4768;42.664;23.240;2022-08-19T01:46:31;172634.44;;;21.27;100.00
9460;BME280;4768;42.664;23.240;2022-08-19T01:48:58;172622.38;;;21.23;100.00
9460;BME280;4768;42.664;23.240;2022-08-19T01:51:25;172549.94;;;20.96;100.00
9460;BME280;4768;42.664;23.240;2022-08-19T01:53:52;172512.41;;;20.82;100.00
9460;BME280;4768;42.664;23.240;2022-08-19T01:56:19;172429.19;;;20.51;100.00
9460;BME280;4768;42.664;23.240;2022-08-19T01:58:52;172399.72;;;20.40;100.00
9460;BME280;4768;42.664;23.240;2022-08-19T02:01:20;172384.97;;;20.35;100.00
9460;BME280;4768;42.664;23.240;2022-08-19T02:03:47;172363.53;;;20.27;100.00
9460;BME280;4768;42.664;23.240;2022-08-19T02:06:14;172295.13;;;20.02;100.00
9460;BME280;4768;42.664;23.240;2022-08-19T02:08:42;172246.81;;;19.84;100.00
9460;BME280;4768;42.664;23.240;2022-08-19T02:11:18;172232.09;;;19.79;100.00
9460;BME280;4768;42.664;23.240;2022-08-19T02:13:46;172202.59;;;19.68;100.00
9460;BME280;4768;42.664;23.240;2022-08-19T02:16:14;172229.41;;;19.78;100.00
9460;BME280;4768;42.664;23.240;2022-08-19T02:18:41;172140.97;;;19.45;100.00
9460;BME280;4768;42.664;23.240;2022-08-19T02:21:07;172177.13;;;19.58;100.00
9460;BME280;4768;42.664;23.240;2022-08-19T02:23:34;172171.75;;;19.56;100.00
9460;BME280;4768;42.664;23.240;2022-08-19T02:26:01;172222.69;;;19.75;100.00
9460;BME280;4768;42.664;23.240;2022-08-19T02:28:27;172226.69;;;19.77;100.00
9460;BME280;4768;42.664;23.240;2022-08-19T02:30:54;172197.22;;;19.66;100.00
9460;BME280;4768;42.664;23.240;2022-08-19T02:33:22;172194.53;;;19.65;100.00
9460;BME280;4768;42.664;23.240;2022-08-19T02:35:49;172154.34;;;19.50;100.00
9460;BME280;4768;42.664;23.240;2022-08-19T02:38:16;172158.34;;;19.51;100.00
9460;BME280;4768;42.664;23.240;2022-08-19T02:40:52;172147.63;;;19.47;100.00
9460;BME280;4768;42.664;23.240;2022-08-19T02:43:19;172139.59;;;19.44;100.00
9460;BME280;4768;42.664;23.240;2022-08-19T02:45:47;172140.97;;;19.45;100.00
9460;BME280;4768;42.664;23.240;2022-08-19T02:48:15;172169.09;;;19.55;100.00
9460;BME280;4768;42.664;23.240;2022-08-19T02:50:44;172147.63;;;19.47;100.00
9460;BME280;4768;42.664;23.240;2022-08-19T02:53:11;172158.34;;;19.51;100.00
9460;BME280;4768;42.664;23.240;2022-08-19T02:55:43;172154.34;;;19.50;100.00
9460;BME280;4768;42.664;23.240;2022-08-19T02:58:10;172140.97;;;19.45;100.00
9460;BME280;4768;42.664;23.240;2022-08-19T03:00:41;172112.81;;;19.35;100.00
9460;BME280;4768;42.664;23.240;2022-08-19T03:03:09;172094.03;;;19.28;100.00
9460;BME280;4768;42.664;23.240;2022-08-19T03:05:35;172061.88;;;19.16;100.00
9460;BME280;4768;42.664;23.240;2022-08-19T03:08:04;172045.81;;;19.10;100.00
9460;BME280;4768;42.664;23.240;2022-08-19T03:10:32;172033.75;;;19.05;100.00
9460;BME280;4768;42.664;23.240;2022-08-19T03:12:58;172018.94;;;19.00;100.00
9460;BME280;4768;42.664;23.240;2022-08-19T03:15:25;171996.16;;;18.91;100.00
9460;BME280;4768;42.664;23.240;2022-08-19T03:17:52;171984.09;;;18.87;100.00
9460;BME280;4768;42.664;23.240;2022-08-19T03:20:19;171961.38;;;18.79;100.00
9460;BME280;4768;42.664;23.240;2022-08-19T03:22:46;171955.97;;;18.77;100.00
9460;BME280;4768;42.664;23.240;2022-08-19T03:25:14;171986.81;;;18.88;100.00
9460;BME280;4768;42.664;23.240;2022-08-19T03:27:42;171985.47;;;18.88;100.00
9460;BME280;4768;42.664;23.240;2022-08-19T03:30:10;171977.44;;;18.85;100.00
9460;BME280;4768;42.664;23.240;2022-08-19T03:32:37;171981.47;;;18.86;100.00
9460;BME280;4768;42.664;23.240;2022-08-19T03:35:04;171919.81;;;18.63;100.00
9460;BME280;4768;42.664;23.240;2022-08-19T03:37:31;-9940.47;;;18.54;100.00
9460;BME280;4768;42.664;23.240;2022-08-19T03:39:58;171868.97;;;18.44;100.00
9460;BME280;4768;42.664;23.240;2022-08-19T03:42:26;171830.09;;;18.30;100.00
9460;BME280;4768;42.664;23.240;2022-08-19T03:44:53;171846.16;;;18.36;100.00
9460;BME280;4768;42.664;23.240;2022-08-19T03:47:19;171842.16;;;18.35;100.00
9460;BME280;4768;42.664;23.240;2022-08-19T03:49:46;171842.16;;;18.35;100.00
9460;BME280;4768;42.664;23.240;2022-08-19T03:52:13;171848.88;;;18.37;100.00
9460;BME280;4768;42.664;23.240;2022-08-19T03:54:40;171859.53;;;18.41;100.00
9460;BME280;4768;42.664;23.240;2022-08-19T03:57:07;171897.09;;;18.55;100.00
9460;BME280;4768;42.664;23.240;2022-08-19T03:59:37;171955.97;;;18.77;100.00
9460;BME280;4768;42.664;23.240;2022-08-19T04:02:08;171942.59;;;18.72;100.00
9460;BME280;4768;42.664;23.240;2022-08-19T04:04:35;171931.88;;;18.68;100.00
9460;BME280;4768;42.664;23.240;2022-08-19T04:07:03;171949.31;;;18.74;100.00
9460;BME280;4768;42.664;23.240;2022-08-19T04:09:29;171994.84;;;18.91;100.00
9460;BME280;4768;42.664;23.240;2022-08-19T04:11:57;172013.59;;;18.98;100.00
9460;BME280;4768;42.664;23.240;2022-08-19T04:14:26;172036.44;;;19.06;100.00
9460;BME280;4768;42.664;23.240;2022-08-19T04:16:55;172061.88;;;19.16;100.00
9460;BME280;4768;42.664;23.240;2022-08-19T04:19:22;172091.34;;;19.27;100.00
9460;BME280;4768;42.664;23.240;2022-08-19T04:21:52;172120.84;;;19.38;100.00
9460;BME280;4768;42.664;23.240;2022-08-19T04:24:20;172143.59;;;19.46;100.00
9460;BME280;4768;42.664;23.240;2022-08-19T04:26:47;172143.59;;;19.76;100.00
9460;BME280;4768;42.664;23.240;2022-08-19T04:29:16;172186.50;;;19.62;100.00
9460;BME280;4768;42.664;23.240;2022-08-19T04:31:44;172244.16;;;19.83;100.00
9460;BME280;4768;42.664;23.240;2022-08-19T04:34:15;172277.69;;;19.95;100.00
9460;BME280;4768;42.664;23.240;2022-08-19T04:36:43;172278.38;;;-138.48;100.00
9460;BME280;4768;42.664;23.240;2022-08-19T04:39:12;-9980.88;;;-138.48;100.00
9460;BME280;4768;42.664;23.240;2022-08-19T04:41:40;172258.91;;;19.88;100.00
9460;BME280;4768;42.664;23.240;2022-08-19T04:44:24;172268.34;;;19.92;100.00
9460;BME280;4768;42.664;23.240;2022-08-19T04:46:51;172270.97;;;19.93;100.00
9460;BME280;4768;42.664;23.240;2022-08-19T04:49:21;172344.75;;;20.20;100.00
9460;BME280;4768;42.664;23.240;2022-08-19T04:51:49;172393.00;;;20.38;100.00
9460;BME280;4768;42.664;23.240;2022-08-19T04:54:19;172398.34;;;20.40;100.00
9460;BME280;4768;42.664;23.240;2022-08-19T04:56:48;172378.25;;;20.33;100.00
9460;BME280;4768;42.664;23.240;2022-08-19T04:59:16;172386.28;;;20.36;100.00
9460;BME280;4768;42.664;23.240;2022-08-19T05:01:44;172417.13;;;20.47;100.00
9460;BME280;4768;42.664;23.240;2022-08-19T05:04:15;172489.59;;;20.74;100.00
9460;BME280;4768;42.664;23.240;2022-08-19T05:06:44;172549.94;;;20.96;100.00
9460;BME280;4768;42.664;23.240;2022-08-19T05:09:12;172666.63;;;21.39;100.00
9460;BME280;4768;42.664;23.240;2022-08-19T05:11:39;172759.31;;;21.73;100.00
9460;BME280;4768;42.664;23.240;2022-08-19T05:14:06;172780.75;;;21.81;100.00
9460;BME280;4768;42.664;23.240;2022-08-19T05:16:34;172787.47;;;21.84;100.00
9460;BME280;4768;42.664;23.240;2022-08-19T05:19:01;172838.44;;;22.02;100.00
9460;BME280;4768;42.664;23.240;2022-08-19T05:21:46;172861.25;;;22.11;100.00
9460;BME280;4768;42.664;23.240;2022-08-19T05:24:31;172881.41;;;22.18;100.00
9460;BME280;4768;42.664;23.240;2022-08-19T05:27:00;172881.41;;;22.18;100.00
9460;BME280;4768;42.664;23.240;2022-08-19T05:29:29;172974.06;;;22.52;100.00
9460;BME280;4768;42.664;23.240;2022-08-19T05:31:57;173077.44;;;22.90;100.00
9460;BME280;4768;42.664;23.240;2022-08-19T05:34:25;173199.72;;;23.35;100.00
9460;BME280;4768;42.664;23.240;2022-08-19T05:36:55;173317.94;;;23.79;100.00
9460;BME280;4768;42.664;23.240;2022-08-19T05:39:25;173390.47;;;24.06;100.00
9460;BME280;4768;42.664;23.240;2022-08-19T05:41:55;173491.34;;;24.43;100.00
9460;BME280;4768;42.664;23.240;2022-08-19T05:44:23;173445.56;;;24.26;100.00
9460;BME280;4768;42.664;23.240;2022-08-19T05:46:51;173445.56;;;24.26;100.00
9460;BME280;4768;42.664;23.240;2022-08-19T05:49:20;173582.75;;;24.77;100.00
9460;BME280;4768;42.664;23.240;2022-08-19T05:51:48;173754.84;;;25.40;100.00
9460;BME280;4768;42.664;23.240;2022-08-19T05:54:17;173449.59;;;24.28;100.00
9460;BME280;4768;42.664;23.240;2022-08-19T05:56:45;173588.09;;;24.79;100.00
9460;BME280;4768;42.664;23.240;2022-08-19T05:59:14;173407.97;;;24.12;100.00
9460;BME280;4768;42.664;23.240;2022-08-19T06:01:44;173410.69;;;24.13;100.00
9460;BME280;4768;42.664;23.240;2022-08-19T06:04:12;173299.16;;;23.72;100.00
9460;BME280;4768;42.664;23.240;2022-08-19T06:06:40;173339.47;;;23.87;100.00
9460;BME280;4768;42.664;23.240;2022-08-19T06:09:07;173499.41;;;24.46;100.00
9460;BME280;4768;42.664;23.240;2022-08-19T06:11:38;173405.28;;;24.11;100.00
9460;BME280;4768;42.664;23.240;2022-08-19T06:14:08;173416.03;;;24.15;100.00
9460;BME280;4768;42.664;23.240;2022-08-19T06:16:36;173401.22;;;24.10;100.00
9460;BME280;4768;42.664;23.240;2022-08-19T06:19:06;173362.25;;;23.95;100.00
9460;BME280;4768;42.664;23.240;2022-08-19T06:21:35;173399.91;;;24.09;100.00
9460;BME280;4768;42.664;23.240;2022-08-19T06:24:04;173410.69;;;24.13;100.00
9460;BME280;4768;42.664;23.240;2022-08-19T06:26:33;173570.66;;;24.72;100.00
9460;BME280;4768;42.664;23.240;2022-08-19T06:29:02;173429.44;;;24.20;100.00
9460;BME280;4768;42.664;23.240;2022-08-19T06:31:31;173598.84;;;24.82;100.00
9460;BME280;4768;42.664;23.240;2022-08-19T06:33:59;173567.94;;;24.71;100.00
9460;BME280;4768;42.664;23.240;2022-08-19T06:36:29;173701.03;;;25.20;100.00
9460;BME280;4768;42.664;23.240;2022-08-19T06:38:56;173691.66;;;25.17;100.00
9460;BME280;4768;42.664;23.240;2022-08-19T06:41:23;173671.50;;;25.09;100.00
9460;BME280;4768;42.664;23.240;2022-08-19T06:43:50;207910.97;;;25.09;100.00
9460;BME280;4768;42.664;23.240;2022-08-19T06:46:19;173645.91;;;25.00;100.00
9460;BME280;4768;42.664;23.240;2022-08-19T06:48:46;173701.03;;;25.20;100.00
9460;BME280;4768;42.664;23.240;2022-08-19T06:51:14;173727.94;;;25.30;100.00
9460;BME280;4768;42.664;23.240;2022-08-19T06:53:44;173873.19;;;25.83;100.00
9460;BME280;4768;42.664;23.240;2022-08-19T06:56:13;173835.56;;;25.70;100.00
9460;BME280;4768;42.664;23.240;2022-08-19T06:58:40;173986.16;;;26.25;100.00
9460;BME280;4768;42.664;23.240;2022-08-19T07:01:07;173902.75;;;25.94;100.00
9460;BME280;4768;42.664;23.240;2022-08-19T07:03:37;173824.81;;;25.66;100.00
9460;BME280;4768;42.664;23.240;2022-08-19T07:06:06;173754.84;;;25.40;100.00
9460;BME280;4768;42.664;23.240;2022-08-19T07:08:36;173745.41;;;25.36;100.00
9460;BME280;4768;42.664;23.240;2022-08-19T07:11:05;173923.00;;;26.02;100.00
9460;BME280;4768;42.664;23.240;2022-08-19T07:13:33;173780.38;;;25.49;100.00
9460;BME280;4768;42.664;23.240;2022-08-19T07:16:03;173746.78;;;25.37;100.00
9460;BME280;4768;42.664;23.240;2022-08-19T07:18:30;173713.16;;;25.25;100.00
9460;BME280;4768;42.664;23.240;2022-08-19T07:21:03;173818.00;;;25.63;100.00
9460;BME280;4768;42.664;23.240;2022-08-19T07:23:30;173953.88;;;26.13;100.00
9460;BME280;4768;42.664;23.240;2022-08-19T07:25:57;173859.78;;;25.79;100.00
9460;BME280;4768;42.664;23.240;2022-08-19T07:28:24;173943.16;;;26.09;100.00
9460;BME280;4768;42.664;23.240;2022-08-19T07:30:51;173905.47;;;25.95;100.00
9460;BME280;4768;42.664;23.240;2022-08-19T07:33:18;173943.16;;;26.09;100.00
9460;BME280;4768;42.664;23.240;2022-08-19T07:35:45;174030.59;;;26.41;100.00
9460;BME280;4768;42.664;23.240;2022-08-19T07:38:13;173888.00;;;25.89;100.00
9460;BME280;4768;42.664;23.240;2022-08-19T07:40:40;174132.88;;;26.79;100.00
9460;BME280;4768;42.664;23.240;2022-08-19T07:43:07;174239.19;;;27.18;100.00
9460;BME280;4768;42.664;23.240;2022-08-19T07:45:34;174193.47;;;27.01;100.00
9460;BME280;4768;42.664;23.240;2022-08-19T07:48:00;174200.22;;;27.04;100.00
9460;BME280;4768;42.664;23.240;2022-08-19T07:50:29;174205.56;;;27.06;100.00
9460;BME280;4768;42.664;23.240;2022-08-19T07:52:56;174201.53;;;27.04;100.00
9460;BME280;4768;42.664;23.240;2022-08-19T07:55:25;174298.41;;;27.40;100.00
9460;BME280;4768;42.664;23.240;2022-08-19T07:57:52;174344.25;;;27.57;100.00
9460;BME280;4768;42.664;23.240;2022-08-19T08:00:19;174423.63;;;27.86;100.00
9460;BME280;4768;42.664;23.240;2022-08-19T08:02:46;174643.16;;;28.67;100.00
9460;BME280;4768;42.664;23.240;2022-08-19T08:05:13;174728.03;;;28.98;100.00
9460;BME280;4768;42.664;23.240;2022-08-19T08:07:57;174868.19;;;29.49;100.00
9460;BME280;4768;42.664;23.240;2022-08-19T08:10:43;174901.91;;;29.62;100.00
9460;BME280;4768;42.664;23.240;2022-08-19T08:13:10;174880.31;;;29.54;100.00
9460;BME280;4768;42.664;23.240;2022-08-19T08:15:38;132123.06;;;29.54;100.00
9460;BME280;4768;42.664;23.240;2022-08-19T08:18:05;174631.03;;;28.62;100.00
9460;BME280;4768;42.664;23.240;2022-08-19T08:20:32;174822.41;;;29.32;100.00
9460;BME280;4768;42.664;23.240;2022-08-19T08:22:58;174744.19;;;29.04;100.00
9460;BME280;4768;42.664;23.240;2022-08-19T08:25:44;174625.66;;;28.60;100.00
9460;BME280;4768;42.664;23.240;2022-08-19T08:28:11;174543.50;;;28.30;100.00
9460;BME280;4768;42.664;23.240;2022-08-19T08:30:37;174524.69;;;28.23;100.00
9460;BME280;4768;42.664;23.240;2022-08-19T08:33:07;174639.13;;;28.65;100.00
9460;BME280;4768;42.664;23.240;2022-08-19T08:35:34;174639.13;;;-138.48;100.00
9460;BME280;4768;42.664;23.240;2022-08-19T08:38:02;174914.03;;;29.66;100.00
9460;BME280;4768;42.664;23.240;2022-08-19T08:40:39;174988.16;;;29.93;99.50
9460;BME280;4768;42.664;23.240;2022-08-19T08:43:18;174825.13;;;29.33;100.00
9460;BME280;4768;42.664;23.240;2022-08-19T08:45:51;174866.88;;;29.49;100.00
9460;BME280;4768;42.664;23.240;2022-08-19T08:48:21;174866.88;;;29.49;97.22
9460;BME280;4768;42.664;23.240;2022-08-19T08:50:51;175222.75;;;30.79;98.86
9460;BME280;4768;42.664;23.240;2022-08-19T08:53:21;175275.38;;;30.99;95.10
9460;BME280;4768;42.664;23.240;2022-08-19T08:55:48;175330.66;;;31.19;100.00
9460;BME280;4768;42.664;23.240;2022-08-19T08:58:23;175015.13;;;30.03;95.22
9460;BME280;4768;42.664;23.240;2022-08-19T09:00:52;174936.91;;;29.74;97.20
9460;BME280;4768;42.664;23.240;2022-08-19T09:03:21;175036.66;;;30.11;94.15
9460;BME280;4768;42.664;23.240;2022-08-19T09:05:56;175003.00;;;29.99;94.64
9460;BME280;4768;42.664;23.240;2022-08-19T09:08:35;175136.47;;;30.48;94.53
9460;BME280;4768;42.664;23.240;2022-08-19T09:11:08;175021.88;;;30.06;91.29
9460;BME280;4768;42.664;23.240;2022-08-19T09:13:44;174849.38;;;29.42;95.04
9460;BME280;4768;42.664;23.240;2022-08-19T09:16:17;174910.00;;;29.65;94.49
9460;BME280;4768;42.664;23.240;2022-08-19T09:18:48;174869.56;;;29.50;84.60
9460;BME280;4768;42.664;23.240;2022-08-19T09:21:18;174896.47;;;29.60;87.46
9460;BME280;4768;42.664;23.240;2022-08-19T09:23:45;174939.59;;;29.75;87.61
9460;BME280;4768;42.664;23.240;2022-08-19T09:26:15;174972.00;;;29.87;85.72
9460;BME280;4768;42.664;23.240;2022-08-19T09:28:46;174920.72;;;29.69;83.18
9460;BME280;4768;42.664;23.240;2022-08-19T09:31:16;174966.63;;;29.85;81.87
9460;BME280;4768;42.664;23.240;2022-08-19T09:33:43;175064.97;;;30.22;82.35
9460;BME280;4768;42.664;23.240;2022-08-19T09:36:12;175136.47;;;30.48;84.83
9460;BME280;4768;42.664;23.240;2022-08-19T09:38:40;175086.56;;;30.29;83.28
9460;BME280;4768;42.664;23.240;2022-08-19T09:41:08;174936.91;;;29.74;83.34
9460;BME280;4768;42.664;23.240;2022-08-19T09:43:37;175039.38;;;30.12;86.62
9460;BME280;4768;42.664;23.240;2022-08-19T09:46:07;175085.19;;;30.29;87.83
9460;BME280;4768;42.664;23.240;2022-08-19T09:48:34;175050.19;;;30.16;83.02
9460;BME280;4768;42.664;23.240;2022-08-19T09:51:03;175194.44;;;30.69;86.96
9460;BME280;4768;42.664;23.240;2022-08-19T09:53:30;175248.38;;;30.89;84.81
9460;BME280;4768;42.664;23.240;2022-08-19T09:55:57;175217.31;;;30.77;78.56
9460;BME280;4768;42.664;23.240;2022-08-19T09:58:24;175090.59;;;30.31;79.69
9460;BME280;4768;42.664;23.240;2022-08-19T10:00:55;175125.72;;;30.44;79.08
9460;BME280;4768;42.664;23.240;2022-08-19T10:03:23;175136.47;;;30.48;74.30
9460;BME280;4768;42.664;23.240;2022-08-19T10:05:50;175017.84;;;30.04;72.94
9460;BME280;4768;42.664;23.240;2022-08-19T10:08:18;175016.47;;;30.04;73.45
9460;BME280;4768;42.664;23.240;2022-08-19T10:10:46;175152.63;;;30.54;75.68
9460;BME280;4768;42.664;23.240;2022-08-19T10:13:15;175255.16;;;30.91;71.78
9460;BME280;4768;42.664;23.240;2022-08-19T10:15:42;175158.06;;;30.56;66.06
9460;BME280;4768;42.664;23.240;2022-08-19T10:18:10;175251.09;;;30.90;65.02
9460;BME280;4768;42.664;23.240;2022-08-19T10:20:38;175278.03;;;31.00;64.63
9460;BME280;4768;42.664;23.240;2022-08-19T10:23:06;175302.34;;;31.09;70.61
9460;BME280;4768;42.664;23.240;2022-08-19T10:25:33;175300.97;;;31.08;63.87
9460;BME280;4768;42.664;23.240;2022-08-19T10:28:00;175315.81;;;31.14;67.99
9460;BME280;4768;42.664;23.240;2022-08-19T10:30:27;175159.38;;;30.56;63.09
9460;BME280;4768;42.664;23.240;2022-08-19T10:32:54;175264.56;;;30.95;77.17
9460;BME280;4768;42.664;23.240;2022-08-19T10:35:21;175353.53;;;31.27;66.25
9460;BME280;4768;42.664;23.240;2022-08-19T10:37:49;175336.03;;;31.21;63.93
9460;BME280;4768;42.664;23.240;2022-08-19T10:40:16;175365.66;;;31.32;67.52
9460;BME280;4768;42.664;23.240;2022-08-19T10:42:42;175368.38;;;31.33;67.52
9460;BME280;4768;42.664;23.240;2022-08-19T10:45:10;175248.38;;;114.85;61.36
9460;BME280;4768;42.664;23.240;2022-08-19T10:47:37;175256.47;;;30.92;64.04
9460;BME280;4768;42.664;23.240;2022-08-19T10:50:04;175332.00;;;31.20;64.57
9460;BME280;4768;42.664;23.240;2022-08-19T10:52:50;175377.81;;;31.36;63.26
9460;BME280;4768;42.664;23.240;2022-08-19T10:55:19;175313.09;;;31.13;64.49
9460;BME280;4768;42.664;23.240;2022-08-19T10:58:04;175375.16;;;31.35;67.66
9460;BME280;4768;42.664;23.240;2022-08-19T11:00:35;175445.28;;;31.61;66.59
9460;BME280;4768;42.664;23.240;2022-08-19T11:03:02;175448.00;;;31.62;61.01
9460;BME280;4768;42.664;23.240;2022-08-19T11:05:29;175396.75;;;31.43;61.34
9460;BME280;4768;42.664;23.240;2022-08-19T11:07:57;175421.03;;;31.52;62.09
9460;BME280;4768;42.664;23.240;2022-08-19T11:10:24;175516.78;;;31.87;71.75
9460;BME280;4768;42.664;23.240;2022-08-19T11:12:51;175522.16;;;31.89;61.48
9460;BME280;4768;42.664;23.240;2022-08-19T11:15:20;175421.03;;;31.52;62.39
9460;BME280;4768;42.664;23.240;2022-08-19T11:17:47;175341.41;;;31.23;64.74
9460;BME280;4768;42.664;23.240;2022-08-19T11:20:14;175423.72;;;31.53;63.94
9460;BME280;4768;42.664;23.240;2022-08-19T11:22:42;175437.19;;;31.58;64.83
9460;BME280;4768;42.664;23.240;2022-08-19T11:25:11;175526.19;;;31.91;65.44
9460;BME280;4768;42.664;23.240;2022-08-19T11:27:39;175454.72;;;31.65;62.57
9460;BME280;4768;42.664;23.240;2022-08-19T11:30:08;175487.13;;;31.76;63.88
9460;BME280;4768;42.664;23.240;2022-08-19T11:32:35;175388.59;;;31.40;61.42
9460;BME280;4768;42.664;23.240;2022-08-19T11:35:02;175403.50;;;31.46;63.36
9460;BME280;4768;42.664;23.240;2022-08-19T11:37:29;175445.28;;;31.61;68.55
9460;BME280;4768;42.664;23.240;2022-08-19T11:39:56;175464.19;;;31.68;66.97
9460;BME280;4768;42.664;23.240;2022-08-19T11:42:24;175487.13;;;31.76;71.72
9460;BME280;4768;42.664;23.240;2022-08-19T11:45:09;175438.53;;;31.59;72.68
9460;BME280;4768;42.664;23.240;2022-08-19T11:47:35;175483.09;;;31.75;65.49
9460;BME280;4768;42.664;23.240;2022-08-19T11:50:04;175396.75;;;31.43;61.66
9460;BME280;4768;42.664;23.240;2022-08-19T11:52:31;175403.50;;;31.46;63.40
9460;BME280;4768;42.664;23.240;2022-08-19T11:54:58;175414.25;;;31.50;63.77
9460;BME280;4768;42.664;23.240;2022-08-19T11:57:26;175485.75;;;31.76;63.24
9460;BME280;4768;42.664;23.240;2022-08-19T11:59:53;175550.53;;;32.00;63.04
9460;BME280;4768;42.664;23.240;2022-08-19T12:02:20;175586.94;;;32.13;70.63
9460;BME280;4768;42.664;23.240;2022-08-19T12:04:47;175676.06;;;32.46;66.03
9460;BME280;4768;42.664;23.240;2022-08-19T12:07:14;175630.09;;;32.29;69.67
9460;BME280;4768;42.664;23.240;2022-08-19T12:09:41;175734.03;;;32.67;68.72
9460;BME280;4768;42.664;23.240;2022-08-19T12:12:08;175719.19;;;32.62;64.73
9460;BME280;4768;42.664;23.240;2022-08-19T12:14:36;175604.50;;;32.20;61.90
9460;BME280;4768;42.664;23.240;2022-08-19T12:17:03;175698.94;;;32.54;67.69
9460;BME280;4768;42.664;23.240;2022-08-19T12:19:33;175634.16;;;32.30;60.95
9460;BME280;4768;42.664;23.240;2022-08-19T12:22:01;175514.06;;;31.86;67.58
9460;BME280;4768;42.664;23.240;2022-08-19T12:24:30;175599.06;;;32.18;68.33
9460;BME280;4768;42.664;23.240;2022-08-19T12:26:57;175622.03;;;32.26;64.79
9460;BME280;4768;42.664;23.240;2022-08-19T12:29:26;175685.47;;;32.49;72.03
9460;BME280;4768;42.664;23.240;2022-08-19T12:31:57;175631.44;;;32.29;64.78
9460;BME280;4768;42.664;23.240;2022-08-19T12:34:27;175560.00;;;32.03;62.07
9460;BME280;4768;42.664;23.240;2022-08-19T12:36:55;175581.56;;;32.11;62.23
9460;BME280;4768;42.664;23.240;2022-08-19T12:39:22;175736.75;;;32.68;62.70
9460;BME280;4768;42.664;23.240;2022-08-19T12:41:49;175904.09;;;33.29;64.14
9460;BME280;4768;42.664;23.240;2022-08-19T12:44:16;175846.09;;;33.08;67.77
9460;BME280;4768;42.664;23.240;2022-08-19T12:46:43;175712.47;;;32.59;61.56
9460;BME280;4768;42.664;23.240;2022-08-19T12:49:11;175750.22;;;32.73;61.75
9460;BME280;4768;42.664;23.240;2022-08-19T12:51:38;175747.50;;;32.72;66.31
9460;BME280;4768;42.664;23.240;2022-08-19T12:54:04;175700.34;;;32.55;62.96
9460;BME280;4768;42.664;23.240;2022-08-19T12:56:31;175705.72;;;32.57;68.00
9460;BME280;4768;42.664;23.240;2022-08-19T12:59:00;176014.13;;;32.57;68.00